Aviation Digital Data Service (ADDS)

Output produced by METARs form (1341 UTC 26 May 2018)
found at http://www.aviationweather.gov/adds/metars/
 
WBSB 261330Z 13002KT 7000 -TSRA SCT014 FEW015CB BKN280 30/27 Q1009 TEMPO 10012KT 6000 TSRA
TAF WBSB 261100Z 2612/2718 10002KT 9999 FEW015 FEW016CB 
     PROB40 
     TEMPO 2614/2618 4000 TSRA SCT012 FEW015CB 
     BECMG 2703/2705 31009KT FEW016 FEW017CB